In Rescue
 
Open Full Screen Window  High Contrast Mode
Wind Gusting 24 knots
15
January 17, 2021 2:00 PM EST
Present Weather: Light Snow
Weather Information
Wind Direction
  260 °
Wind Speed
  15 kt (17 mph)
Wind Gust
  24 kt (28 mph)
Altimeter
29.30 in
Visibility
1 SM
Temperature
00° C
32° F
Dewpoint
-02° C
28° F
Humidity
87%
Sky Condition
Overcast @ 1,300 ft
IFR

METAR KEFK 171900Z AUTO 26015G24KT 1SM -SN OVC013 00/M02 A2930 RMK AO2 T10051021

FAA Disclaimer: The data displayed is for advisory purposes only and is not to be used for flight planning or operations.